createdAt,value
2023-01-15T00:00:57.781Z,11.23
2023-01-15T00:01:57.748Z,11.26
2023-01-15T00:02:57.816Z,11.25
2023-01-15T00:03:57.801Z,11.27
2023-01-15T00:04:57.749Z,11.14
2023-01-15T00:05:57.763Z,11.14
2023-01-15T00:06:57.763Z,11.30
2023-01-15T00:07:57.761Z,11.29
2023-01-15T00:08:57.763Z,11.18
2023-01-15T00:09:57.774Z,11.29
2023-01-15T00:10:57.771Z,11.25
2023-01-15T00:11:57.783Z,11.29
2023-01-15T00:12:57.783Z,11.25
2023-01-15T00:13:57.785Z,11.30
2023-01-15T00:14:57.793Z,11.27
2023-01-15T00:15:57.818Z,11.25
2023-01-15T00:16:57.796Z,11.30
2023-01-15T00:17:57.808Z,11.32
2023-01-15T00:18:57.812Z,11.29
2023-01-15T00:19:57.804Z,11.33
2023-01-15T00:20:57.834Z,11.15
2023-01-15T00:21:57.824Z,11.29
2023-01-15T00:22:57.825Z,11.22
2023-01-15T00:23:57.830Z,11.37
2023-01-15T00:24:57.825Z,11.18
2023-01-15T00:25:57.829Z,11.19
2023-01-15T00:26:57.850Z,11.32
2023-01-15T00:27:57.846Z,11.22
2023-01-15T00:28:57.848Z,11.19
2023-01-15T00:29:57.843Z,11.25
2023-01-15T00:30:57.870Z,11.26
2023-01-15T00:31:57.863Z,11.29
2023-01-15T00:32:57.865Z,11.27
2023-01-15T00:33:57.859Z,11.22
2023-01-15T00:34:57.868Z,11.26
2023-01-15T00:35:57.875Z,11.26
2023-01-15T00:36:57.878Z,11.23
2023-01-15T00:37:57.881Z,11.23
2023-01-15T00:38:57.877Z,11.23
2023-01-15T00:39:57.887Z,11.23
2023-01-15T00:40:57.886Z,11.29
2023-01-15T00:41:57.907Z,11.27
2023-01-15T00:42:57.897Z,11.32
2023-01-15T00:43:57.896Z,11.23
2023-01-15T00:44:57.931Z,11.23
2023-01-15T00:45:57.905Z,11.18
2023-01-15T00:46:57.914Z,11.26
2023-01-15T00:47:57.918Z,11.19
2023-01-15T00:48:57.912Z,11.19
2023-01-15T00:49:57.935Z,11.26
2023-01-15T00:50:57.921Z,11.29
2023-01-15T00:51:57.930Z,11.27
2023-01-15T00:52:57.930Z,11.29
2023-01-15T00:53:57.945Z,11.26
2023-01-15T00:54:57.945Z,11.22
2023-01-15T00:55:57.967Z,11.25
2023-01-15T00:56:57.953Z,11.30
2023-01-15T00:57:57.959Z,11.30
2023-01-15T00:58:57.961Z,11.30
2023-01-15T00:59:57.963Z,11.19
2023-01-15T01:00:58.043Z,11.25
2023-01-15T01:01:58.106Z,11.23
2023-01-15T01:02:57.973Z,11.19
2023-01-15T01:03:57.990Z,11.29
2023-01-15T01:04:57.982Z,11.33
2023-01-15T01:05:57.979Z,11.33
2023-01-15T01:06:57.988Z,11.18
2023-01-15T01:07:57.985Z,11.25
2023-01-15T01:08:58.017Z,11.22
2023-01-15T01:09:58.005Z,11.29
2023-01-15T01:10:57.996Z,11.27
2023-01-15T01:11:58.000Z,11.19
2023-01-15T01:12:58.009Z,11.15
2023-01-15T01:13:58.014Z,11.14
2023-01-15T01:14:58.039Z,11.18
2023-01-15T01:15:58.056Z,11.07
2023-01-15T01:16:58.027Z,11.10
2023-01-15T01:17:58.029Z,11.08
2023-01-15T01:18:58.033Z,11.04
2023-01-15T01:19:58.031Z,11.07
2023-01-15T01:20:58.042Z,10.97
2023-01-15T01:21:58.038Z,11.04
2023-01-15T01:22:58.046Z,10.99
2023-01-15T01:23:58.062Z,10.99
2023-01-15T01:24:58.069Z,11.00
2023-01-15T01:25:58.065Z,10.99
2023-01-15T01:26:58.062Z,10.96
2023-01-15T01:27:58.074Z,11.04
2023-01-15T01:28:58.067Z,10.94
2023-01-15T01:29:58.072Z,10.96
2023-01-15T01:30:58.072Z,10.96
2023-01-15T01:31:58.079Z,10.99
2023-01-15T01:32:58.079Z,11.00
2023-01-15T01:33:58.089Z,10.99
2023-01-15T01:34:58.094Z,11.00
2023-01-15T01:35:58.087Z,10.99
2023-01-15T01:36:58.097Z,10.87
2023-01-15T01:37:58.101Z,10.87
2023-01-15T01:38:58.095Z,11.00
2023-01-15T01:39:58.101Z,10.94
2023-01-15T01:40:58.112Z,10.97
2023-01-15T01:41:58.119Z,11.00
2023-01-15T01:42:58.123Z,10.93
2023-01-15T01:43:58.121Z,10.97
2023-01-15T01:44:58.124Z,10.93
2023-01-15T01:45:58.156Z,10.93
2023-01-15T01:46:58.131Z,10.97
2023-01-15T01:47:58.128Z,10.87
2023-01-15T01:48:58.132Z,10.99
2023-01-15T01:50:58.143Z,10.90
2023-01-15T01:51:58.149Z,10.90
2023-01-15T01:52:58.152Z,10.93
2023-01-15T01:53:58.159Z,10.87
2023-01-15T01:54:58.153Z,11.00
2023-01-15T01:55:58.181Z,10.97
2023-01-15T01:56:58.159Z,10.86
2023-01-15T01:57:58.161Z,10.94
2023-01-15T01:58:58.167Z,10.99
2023-01-15T01:59:58.168Z,10.99
2023-01-15T02:00:58.345Z,11.02
2023-01-15T02:01:58.278Z,11.00
2023-01-15T02:02:58.200Z,10.94
2023-01-15T02:03:58.191Z,10.99
2023-01-15T02:04:58.192Z,11.04
2023-01-15T02:05:58.200Z,11.00
2023-01-15T02:06:58.196Z,10.94
2023-01-15T02:07:58.198Z,10.96
2023-01-15T02:08:58.213Z,11.00
2023-01-15T02:09:58.216Z,10.90
2023-01-15T02:10:58.208Z,11.05
2023-01-15T02:11:58.219Z,10.99
2023-01-15T02:12:58.222Z,10.96
2023-01-15T02:13:58.228Z,10.89
2023-01-15T02:14:58.221Z,11.02
2023-01-15T02:15:58.345Z,10.99
2023-01-15T02:16:58.231Z,10.99
2023-01-15T02:17:58.243Z,11.02
2023-01-15T02:18:58.236Z,10.99
2023-01-15T02:19:58.258Z,10.94
2023-01-15T02:20:58.262Z,11.02
2023-01-15T02:21:58.256Z,10.97
2023-01-15T02:22:58.257Z,10.94
2023-01-15T02:23:58.261Z,10.96
2023-01-15T02:24:58.272Z,10.94
2023-01-15T02:25:58.268Z,10.94
2023-01-15T02:26:58.277Z,10.86
2023-01-15T02:27:58.269Z,10.87
2023-01-15T02:28:58.272Z,10.92
2023-01-15T02:29:58.281Z,10.93
2023-01-15T02:30:58.281Z,10.86
2023-01-15T02:31:58.326Z,10.78
2023-01-15T02:32:58.290Z,10.71
2023-01-15T02:33:58.288Z,10.71
2023-01-15T02:35:00.597Z,10.51
2023-01-15T02:35:58.314Z,10.44
2023-01-15T02:36:58.302Z,10.37
2023-01-15T02:37:58.312Z,10.40
2023-01-15T02:38:58.315Z,10.35
2023-01-15T02:39:58.317Z,10.25
2023-01-15T02:40:58.319Z,10.20
2023-01-15T02:41:58.326Z,10.13
2023-01-15T02:42:58.318Z,10.07
2023-01-15T02:43:58.328Z,10.01
2023-01-15T02:44:58.328Z,10.01
2023-01-15T02:45:58.431Z,9.89
2023-01-15T02:46:58.333Z,9.80
2023-01-15T02:47:58.337Z,9.83
2023-01-15T02:48:58.350Z,9.72
2023-01-15T02:49:58.345Z,9.74
2023-01-15T02:50:58.348Z,9.74
2023-01-15T02:51:58.357Z,9.80
2023-01-15T02:52:58.353Z,9.72
2023-01-15T02:53:58.369Z,9.72
2023-01-15T02:54:58.370Z,9.65
2023-01-15T02:55:58.377Z,9.59
2023-01-15T02:56:58.367Z,9.48
2023-01-15T02:57:58.378Z,9.55
2023-01-15T02:58:58.381Z,9.46
2023-01-15T02:59:58.375Z,9.40
2023-01-15T03:00:58.558Z,9.43
2023-01-15T03:01:58.564Z,9.39
2023-01-15T03:02:58.387Z,9.26
2023-01-15T03:03:58.389Z,9.21
2023-01-15T03:04:58.403Z,9.26
2023-01-15T03:05:58.413Z,9.28
2023-01-15T03:06:58.428Z,9.31
2023-01-15T03:07:58.407Z,9.29
2023-01-15T03:08:58.412Z,9.18
2023-01-15T03:09:58.413Z,9.18
2023-01-15T03:10:58.419Z,9.16
2023-01-15T03:11:58.414Z,9.21
2023-01-15T03:12:58.425Z,9.19
2023-01-15T03:13:58.427Z,8.99
2023-01-15T03:14:58.428Z,9.13
2023-01-15T03:15:58.433Z,8.91
2023-01-15T03:16:58.429Z,9.02
2023-01-15T03:17:58.433Z,8.94
2023-01-15T03:18:58.439Z,8.88
2023-01-15T03:19:58.440Z,8.87
2023-01-15T03:20:59.038Z,8.78
2023-01-15T03:21:58.453Z,8.73
2023-01-15T03:22:58.445Z,8.78
2023-01-15T03:23:58.457Z,8.70
2023-01-15T03:24:58.453Z,8.69
2023-01-15T03:25:58.459Z,8.67
2023-01-15T03:26:58.470Z,8.61
2023-01-15T03:27:58.469Z,8.66
2023-01-15T03:28:58.471Z,8.61
2023-01-15T03:29:58.470Z,8.56
2023-01-15T03:30:58.495Z,8.53
2023-01-15T03:31:58.481Z,8.49
2023-01-15T03:32:58.475Z,8.52
2023-01-15T03:33:58.480Z,8.52
2023-01-15T03:34:58.490Z,8.53
2023-01-15T03:35:58.491Z,8.45
2023-01-15T03:36:58.499Z,8.52
2023-01-15T03:37:58.502Z,8.42
2023-01-15T03:38:58.501Z,8.41
2023-01-15T03:39:58.501Z,8.51
2023-01-15T03:40:58.507Z,8.42
2023-01-15T03:41:58.519Z,8.37
2023-01-15T03:42:58.503Z,8.41
2023-01-15T03:43:58.508Z,8.49
2023-01-15T03:44:58.509Z,8.52
2023-01-15T03:45:58.575Z,8.36
2023-01-15T03:46:58.521Z,8.36
2023-01-15T03:47:58.529Z,8.42
2023-01-15T03:48:58.528Z,8.31
2023-01-15T03:49:58.529Z,8.38
2023-01-15T03:50:58.527Z,8.36
2023-01-15T03:51:58.528Z,8.38
2023-01-15T03:52:58.540Z,8.30
2023-01-15T03:53:58.554Z,8.30
2023-01-15T03:54:58.543Z,8.26
2023-01-15T03:55:58.546Z,8.31
2023-01-15T03:56:58.559Z,8.34
2023-01-15T03:57:58.543Z,8.30
2023-01-15T03:58:58.551Z,8.24
2023-01-15T03:59:58.557Z,8.23
2023-01-15T04:00:58.718Z,8.23
2023-01-15T04:01:58.759Z,8.23
2023-01-15T04:02:58.569Z,8.26
2023-01-15T04:03:58.600Z,8.20
2023-01-15T04:04:58.572Z,8.19
2023-01-15T04:05:58.573Z,8.24
2023-01-15T04:06:58.568Z,8.13
2023-01-15T04:07:58.578Z,8.19
2023-01-15T04:08:58.572Z,8.15
2023-01-15T04:09:58.578Z,8.19
2023-01-15T04:10:58.593Z,8.20
2023-01-15T04:11:58.582Z,8.15
2023-01-15T04:12:58.583Z,8.19
2023-01-15T04:13:58.605Z,8.12
2023-01-15T04:14:58.600Z,8.16
2023-01-15T04:15:58.673Z,8.15
2023-01-15T04:16:58.616Z,8.18
2023-01-15T04:17:58.606Z,8.16
2023-01-15T04:18:58.599Z,8.15
2023-01-15T04:19:58.614Z,8.18
2023-01-15T04:20:58.616Z,8.12
2023-01-15T04:21:58.619Z,8.19
2023-01-15T04:22:58.614Z,8.19
2023-01-15T04:23:58.614Z,8.16
2023-01-15T04:24:58.625Z,8.19
2023-01-15T04:25:58.638Z,8.13
2023-01-15T04:26:58.627Z,8.20
2023-01-15T04:27:58.630Z,8.15
2023-01-15T04:28:58.634Z,8.16
2023-01-15T04:29:58.637Z,8.27
2023-01-15T04:30:58.644Z,8.24
2023-01-15T04:31:58.646Z,8.24
2023-01-15T04:32:58.649Z,8.20
2023-01-15T04:33:58.650Z,8.19
2023-01-15T04:34:58.656Z,8.19
2023-01-15T04:35:58.644Z,8.28
2023-01-15T04:36:58.655Z,8.20
2023-01-15T04:37:58.671Z,8.20
2023-01-15T04:38:58.652Z,8.24
2023-01-15T04:39:58.672Z,8.26
2023-01-15T04:40:58.666Z,8.33
2023-01-15T04:41:58.667Z,8.33
2023-01-15T04:42:58.681Z,8.28
2023-01-15T04:43:58.677Z,8.24
2023-01-15T04:44:58.676Z,8.36
2023-01-15T04:45:58.751Z,8.28
2023-01-15T04:46:58.691Z,8.33
2023-01-15T04:47:58.687Z,8.31
2023-01-15T04:48:58.691Z,8.37
2023-01-15T04:49:58.683Z,8.31
2023-01-15T04:50:58.684Z,8.33
2023-01-15T04:51:58.697Z,8.31
2023-01-15T04:52:58.699Z,8.28
2023-01-15T04:53:58.695Z,8.30
2023-01-15T04:54:58.705Z,8.24
2023-01-15T04:55:58.706Z,8.24
2023-01-15T04:56:58.703Z,8.30
2023-01-15T04:57:58.711Z,8.24
2023-01-15T04:58:58.705Z,8.30
2023-01-15T04:59:58.708Z,8.33
2023-01-15T05:00:58.747Z,8.31
2023-01-15T05:02:04.983Z,8.26
2023-01-15T05:02:58.718Z,8.31
2023-01-15T05:03:58.721Z,8.28
2023-01-15T05:04:58.740Z,8.30
2023-01-15T05:05:58.732Z,8.27
2023-01-15T05:06:58.727Z,8.24
2023-01-15T05:07:58.729Z,8.20
2023-01-15T05:08:58.745Z,8.24
2023-01-15T05:09:58.745Z,8.15
2023-01-15T05:10:58.745Z,8.13
2023-01-15T05:11:58.749Z,8.09
2023-01-15T05:12:58.749Z,8.13
2023-01-15T05:13:58.767Z,8.09
2023-01-15T05:14:58.749Z,8.00
2023-01-15T05:15:58.778Z,8.08
2023-01-15T05:16:58.754Z,8.05
2023-01-15T05:17:58.768Z,8.00
2023-01-15T05:18:58.767Z,7.97
2023-01-15T05:19:58.770Z,7.94
2023-01-15T05:20:58.772Z,7.90
2023-01-15T05:21:58.770Z,7.94
2023-01-15T05:22:58.774Z,7.97
2023-01-15T05:23:58.772Z,7.98
2023-01-15T05:24:58.774Z,8.00
2023-01-15T05:25:58.785Z,7.91
2023-01-15T05:26:58.792Z,8.01
2023-01-15T05:27:58.789Z,7.94
2023-01-15T05:28:58.792Z,7.82
2023-01-15T05:29:58.788Z,7.88
2023-01-15T05:30:58.848Z,7.94
2023-01-15T05:31:58.806Z,7.93
2023-01-15T05:32:58.802Z,7.77
2023-01-15T05:33:58.799Z,7.76
2023-01-15T05:34:58.801Z,7.88
2023-01-15T05:35:58.803Z,7.95
2023-01-15T05:36:58.814Z,7.90
2023-01-15T05:37:58.814Z,7.82
2023-01-15T05:38:58.825Z,7.95
2023-01-15T05:39:58.811Z,7.95
2023-01-15T05:40:58.822Z,8.01
2023-01-15T05:41:58.828Z,8.01
2023-01-15T05:42:58.821Z,8.05
2023-01-15T05:43:58.820Z,8.03
2023-01-15T05:44:58.824Z,8.05
2023-01-15T05:45:58.863Z,7.94
2023-01-15T05:46:58.831Z,7.90
2023-01-15T05:47:58.840Z,7.90
2023-01-15T05:48:58.843Z,7.83
2023-01-15T05:49:58.852Z,7.90
2023-01-15T05:50:58.840Z,7.91
2023-01-15T05:51:58.848Z,7.76
2023-01-15T05:52:58.852Z,7.75
2023-01-15T05:53:58.848Z,7.75
2023-01-15T05:54:58.859Z,7.70
2023-01-15T05:55:58.861Z,7.72
2023-01-15T05:56:58.889Z,7.73
2023-01-15T05:57:58.889Z,7.75
2023-01-15T05:58:58.863Z,7.70
2023-01-15T05:59:58.869Z,7.70
2023-01-15T06:00:58.903Z,7.60
2023-01-15T06:01:58.875Z,7.60
2023-01-15T06:02:58.904Z,7.70
2023-01-15T06:03:58.905Z,7.63
2023-01-15T06:04:58.873Z,7.70
2023-01-15T06:05:58.878Z,7.72
2023-01-15T06:06:58.887Z,7.73
2023-01-15T06:08:01.174Z,7.73
2023-01-15T06:08:58.891Z,7.83
2023-01-15T06:09:58.884Z,7.77
2023-01-15T06:10:58.891Z,7.95
2023-01-15T06:11:58.899Z,7.75
2023-01-15T06:12:58.896Z,7.77
2023-01-15T06:13:58.905Z,7.90
2023-01-15T06:14:58.900Z,7.90
2023-01-15T06:15:58.939Z,7.77
2023-01-15T06:16:58.901Z,7.76
2023-01-15T06:17:58.907Z,7.87
2023-01-15T06:18:58.945Z,7.77
2023-01-15T06:19:58.909Z,7.76
2023-01-15T06:20:58.913Z,7.87
2023-01-15T06:21:58.931Z,7.88
2023-01-15T06:22:58.929Z,7.77
2023-01-15T06:23:58.925Z,7.83
2023-01-15T06:24:58.928Z,7.72
2023-01-15T06:25:58.925Z,7.75
2023-01-15T06:26:58.925Z,7.76
2023-01-15T06:27:58.950Z,7.83
2023-01-15T06:28:58.937Z,7.75
2023-01-15T06:29:58.951Z,7.72
2023-01-15T06:30:58.942Z,7.73
2023-01-15T06:31:58.939Z,7.75
2023-01-15T06:32:58.939Z,7.75
2023-01-15T06:33:58.951Z,7.77
2023-01-15T06:34:58.947Z,7.70
2023-01-15T06:35:58.948Z,7.73
2023-01-15T06:36:58.948Z,7.76
2023-01-15T06:37:58.962Z,7.88
2023-01-15T06:38:58.964Z,7.85
2023-01-15T06:39:58.967Z,7.88
2023-01-15T06:40:58.968Z,7.90
2023-01-15T06:41:58.965Z,7.90
2023-01-15T06:42:58.989Z,7.88
2023-01-15T06:43:58.971Z,8.00
2023-01-15T06:44:58.970Z,7.93
2023-01-15T06:45:58.979Z,7.91
2023-01-15T06:46:58.980Z,7.93
2023-01-15T06:47:58.983Z,8.03
2023-01-15T06:48:58.985Z,8.00
2023-01-15T06:49:58.987Z,8.01
2023-01-15T06:50:58.989Z,8.01
2023-01-15T06:51:58.994Z,8.01
2023-01-15T06:52:58.994Z,7.97
2023-01-15T06:53:58.991Z,8.06
2023-01-15T06:54:58.999Z,8.03
2023-01-15T06:55:58.993Z,8.06
2023-01-15T06:56:59.007Z,8.05
2023-01-15T06:57:58.998Z,8.05
2023-01-15T06:58:59.004Z,8.03
2023-01-15T06:59:59.013Z,8.01
2023-01-15T07:00:59.131Z,8.08
2023-01-15T07:01:59.012Z,8.06
2023-01-15T07:02:59.015Z,8.01
2023-01-15T07:03:59.117Z,7.98
2023-01-15T07:04:59.025Z,8.12
2023-01-15T07:05:59.018Z,8.03
2023-01-15T07:06:59.022Z,8.15
2023-01-15T07:07:59.023Z,8.15
2023-01-15T07:08:59.039Z,8.18
2023-01-15T07:09:59.043Z,8.08
2023-01-15T07:10:59.037Z,8.12
2023-01-15T07:11:59.031Z,8.12
2023-01-15T07:12:59.035Z,8.12
2023-01-15T07:13:59.037Z,8.15
2023-01-15T07:14:59.045Z,8.10
2023-01-15T07:15:59.094Z,8.12
2023-01-15T07:16:59.045Z,8.15
2023-01-15T07:17:59.064Z,8.03
2023-01-15T07:18:59.055Z,8.05
2023-01-15T07:19:59.060Z,8.05
2023-01-15T07:20:59.060Z,7.98
2023-01-15T07:21:59.054Z,8.05
2023-01-15T07:22:59.059Z,7.98
2023-01-15T07:23:59.061Z,8.06
2023-01-15T07:24:59.062Z,8.00
2023-01-15T07:25:59.071Z,8.05
2023-01-15T07:26:59.066Z,8.06
2023-01-15T07:27:59.077Z,7.90
2023-01-15T07:28:59.082Z,7.98
2023-01-15T07:29:59.081Z,8.05
2023-01-15T07:30:59.084Z,7.90
2023-01-15T07:31:59.079Z,7.93
2023-01-15T07:32:59.087Z,8.09
2023-01-15T07:33:59.085Z,8.06
2023-01-15T07:34:59.088Z,7.98
2023-01-15T07:35:59.094Z,8.09
2023-01-15T07:36:59.108Z,8.03
2023-01-15T07:37:59.093Z,8.01
2023-01-15T07:38:59.107Z,8.03
2023-01-15T07:39:59.096Z,8.01
2023-01-15T07:40:59.109Z,8.12
2023-01-15T07:41:59.101Z,8.05
2023-01-15T07:42:59.112Z,8.06
2023-01-15T07:43:59.105Z,7.97
2023-01-15T07:44:59.116Z,8.01
2023-01-15T07:45:59.219Z,8.01
2023-01-15T07:46:59.126Z,8.01
2023-01-15T07:47:59.125Z,8.03
2023-01-15T07:48:59.135Z,8.00
2023-01-15T07:49:59.135Z,8.01
2023-01-15T07:50:59.131Z,8.01
2023-01-15T07:51:59.131Z,8.08
2023-01-15T07:52:59.142Z,8.06
2023-01-15T07:53:59.138Z,8.08
2023-01-15T07:54:59.137Z,7.98
2023-01-15T07:55:59.135Z,8.00
2023-01-15T07:56:59.136Z,8.01
2023-01-15T07:57:59.146Z,7.98
2023-01-15T07:58:59.141Z,7.90
2023-01-15T07:59:59.145Z,8.03
2023-01-15T08:00:59.295Z,8.10
2023-01-15T08:01:59.319Z,8.01
2023-01-15T08:02:59.155Z,8.05
2023-01-15T08:03:59.223Z,8.01
2023-01-15T08:04:59.160Z,8.10
2023-01-15T08:05:59.166Z,8.01
2023-01-15T08:06:59.160Z,8.15
2023-01-15T08:07:59.178Z,8.03
2023-01-15T08:08:59.165Z,7.98
2023-01-15T08:09:59.169Z,8.00
2023-01-15T08:10:59.172Z,8.03
2023-01-15T08:11:59.177Z,8.09
2023-01-15T08:12:59.241Z,8.15
2023-01-15T08:13:59.180Z,8.15
2023-01-15T08:14:59.189Z,8.13
2023-01-15T08:15:59.184Z,8.12
2023-01-15T08:16:59.195Z,8.18
2023-01-15T08:17:59.205Z,8.16
2023-01-15T08:18:59.200Z,8.16
2023-01-15T08:19:59.194Z,8.12
2023-01-15T08:20:59.209Z,8.19
2023-01-15T08:21:59.200Z,8.19
2023-01-15T08:22:59.211Z,8.23
2023-01-15T08:23:59.208Z,8.18
2023-01-15T08:24:59.207Z,8.24
2023-01-15T08:25:59.216Z,8.15
2023-01-15T08:26:59.214Z,8.20
2023-01-15T08:27:59.220Z,8.20
2023-01-15T08:28:59.503Z,8.16
2023-01-15T08:29:59.226Z,8.16
2023-01-15T08:30:59.237Z,8.09
2023-01-15T08:31:59.224Z,8.15
2023-01-15T08:32:59.234Z,8.18
2023-01-15T08:33:59.228Z,8.12
2023-01-15T08:34:59.241Z,8.15
2023-01-15T08:35:59.233Z,8.12
2023-01-15T08:36:59.237Z,8.16
2023-01-15T08:37:59.249Z,8.10
2023-01-15T08:38:59.242Z,8.15
2023-01-15T08:39:59.242Z,8.15
2023-01-15T08:40:59.275Z,8.23
2023-01-15T08:41:59.249Z,8.24
2023-01-15T08:42:59.251Z,8.23
2023-01-15T08:43:59.261Z,8.27
2023-01-15T08:44:59.255Z,8.27
2023-01-15T08:45:59.461Z,8.27
2023-01-15T08:46:59.264Z,8.24
2023-01-15T08:47:59.264Z,8.31
2023-01-15T08:48:59.280Z,8.38
2023-01-15T08:49:59.306Z,8.36
2023-01-15T08:50:59.269Z,8.38
2023-01-15T08:51:59.295Z,8.33
2023-01-15T08:52:59.292Z,8.38
2023-01-15T08:53:59.287Z,8.33
2023-01-15T08:54:59.281Z,8.26
2023-01-15T08:55:59.285Z,8.30
2023-01-15T08:56:59.294Z,8.20
2023-01-15T08:57:59.300Z,8.19
2023-01-15T08:58:59.290Z,8.13
2023-01-15T08:59:59.308Z,8.20
2023-01-15T09:00:59.482Z,8.10
2023-01-15T09:01:59.388Z,8.13
2023-01-15T09:02:59.303Z,8.15
2023-01-15T09:03:59.316Z,8.03
2023-01-15T09:04:59.382Z,8.00
2023-01-15T09:05:59.312Z,7.97
2023-01-15T09:06:59.314Z,8.03
2023-01-15T09:07:59.324Z,8.06
2023-01-15T09:08:59.326Z,8.01
2023-01-15T09:09:59.329Z,8.03
2023-01-15T09:10:59.331Z,8.08
2023-01-15T09:11:59.326Z,8.13
2023-01-15T09:12:59.332Z,8.12
2023-01-15T09:13:59.342Z,8.12
2023-01-15T09:15:01.884Z,8.13
2023-01-15T09:15:59.336Z,8.12
2023-01-15T09:16:59.348Z,8.15
2023-01-15T09:17:59.357Z,8.27
2023-01-15T09:18:59.356Z,8.20
2023-01-15T09:19:59.352Z,8.27
2023-01-15T09:20:59.348Z,8.28
2023-01-15T09:21:59.356Z,8.33
2023-01-15T09:22:59.357Z,8.34
2023-01-15T09:23:59.356Z,8.34
2023-01-15T09:24:59.442Z,8.27
2023-01-15T09:25:59.386Z,8.31
2023-01-15T09:26:59.364Z,8.31
2023-01-15T09:27:59.425Z,8.30
2023-01-15T09:28:59.383Z,8.33
2023-01-15T09:29:59.390Z,8.31
2023-01-15T09:30:59.396Z,8.41
2023-01-15T09:31:59.388Z,8.34
2023-01-15T09:32:59.382Z,8.34
2023-01-15T09:33:59.394Z,8.33
2023-01-15T09:34:59.394Z,8.30
2023-01-15T09:35:59.392Z,8.28
2023-01-15T09:36:59.398Z,8.30
2023-01-15T09:37:59.404Z,8.34
2023-01-15T09:38:59.400Z,8.30
2023-01-15T09:39:59.408Z,8.30
2023-01-15T09:40:59.403Z,8.31
2023-01-15T09:41:59.415Z,8.28
2023-01-15T09:42:59.415Z,8.36
2023-01-15T09:43:59.421Z,8.28
2023-01-15T09:44:59.415Z,8.30
2023-01-15T09:45:59.438Z,8.28
2023-01-15T09:46:59.419Z,8.27
2023-01-15T09:47:59.434Z,8.31
2023-01-15T09:48:59.433Z,8.34
2023-01-15T09:49:59.434Z,8.31
2023-01-15T09:50:59.440Z,8.27
2023-01-15T09:51:59.440Z,8.37
2023-01-15T09:52:59.440Z,8.36
2023-01-15T09:53:59.449Z,8.37
2023-01-15T09:54:59.449Z,8.41
2023-01-15T09:55:59.453Z,8.38
2023-01-15T09:56:59.448Z,8.36
2023-01-15T09:57:59.464Z,8.33
2023-01-15T09:58:59.453Z,8.41
2023-01-15T09:59:59.460Z,8.37
2023-01-15T10:00:59.515Z,8.37
2023-01-15T10:01:59.472Z,8.36
2023-01-15T10:02:59.492Z,8.37
2023-01-15T10:03:59.525Z,8.36
2023-01-15T10:04:59.480Z,8.31
2023-01-15T10:05:59.473Z,8.28
2023-01-15T10:06:59.484Z,8.26
2023-01-15T10:07:59.493Z,8.31
2023-01-15T10:08:59.483Z,8.33
2023-01-15T10:09:59.497Z,8.36
2023-01-15T10:10:59.503Z,8.33
2023-01-15T10:11:59.499Z,8.44
2023-01-15T10:12:59.501Z,8.38
2023-01-15T10:13:59.512Z,8.42
2023-01-15T10:14:59.521Z,8.41
2023-01-15T10:15:59.561Z,8.38
2023-01-15T10:16:59.521Z,8.44
2023-01-15T10:17:59.510Z,8.33
2023-01-15T10:18:59.511Z,8.30
2023-01-15T10:19:59.522Z,8.37
2023-01-15T10:20:59.517Z,8.34
2023-01-15T10:21:59.518Z,8.33
2023-01-15T10:22:59.958Z,8.30
2023-01-15T10:23:59.526Z,8.41
2023-01-15T10:24:59.532Z,8.41
2023-01-15T10:25:59.533Z,8.36
2023-01-15T10:26:59.540Z,8.41
2023-01-15T10:27:59.545Z,8.46
2023-01-15T10:28:59.547Z,8.45
2023-01-15T10:29:59.548Z,8.46
2023-01-15T10:30:59.614Z,8.37
2023-01-15T10:31:59.559Z,8.41
2023-01-15T10:33:03.453Z,8.44
2023-01-15T10:33:59.575Z,8.36
2023-01-15T10:34:59.562Z,8.41
2023-01-15T10:35:59.586Z,8.46
2023-01-15T10:36:59.573Z,8.52
2023-01-15T10:37:59.564Z,8.36
2023-01-15T10:38:59.579Z,8.49
2023-01-15T10:39:59.571Z,8.46
2023-01-15T10:40:59.578Z,8.41
2023-01-15T10:41:59.583Z,8.42
2023-01-15T10:42:59.578Z,8.46
2023-01-15T10:43:59.583Z,8.49
2023-01-15T10:44:59.583Z,8.42
2023-01-15T10:45:59.645Z,8.46
2023-01-15T10:46:59.595Z,8.51
2023-01-15T10:47:59.599Z,8.49
2023-01-15T10:48:59.607Z,8.42
2023-01-15T10:49:59.598Z,8.48
2023-01-15T10:50:59.603Z,8.44
2023-01-15T10:51:59.617Z,8.44
2023-01-15T10:52:59.616Z,8.42
2023-01-15T10:53:59.609Z,8.42
2023-01-15T10:54:59.618Z,8.44
2023-01-15T10:55:59.637Z,8.51
2023-01-15T10:56:59.624Z,8.48
2023-01-15T10:58:09.907Z,8.49
2023-01-15T10:58:59.635Z,8.63
2023-01-15T10:59:59.632Z,8.88
2023-01-15T11:00:59.671Z,9.00
2023-01-15T11:01:59.768Z,9.08
2023-01-15T11:02:59.658Z,9.08
2023-01-15T11:03:59.657Z,8.89
2023-01-15T11:04:59.662Z,8.94
2023-01-15T11:05:59.650Z,8.92
2023-01-15T11:06:59.654Z,8.89
2023-01-15T11:08:42.151Z,8.78
2023-01-15T11:09:09.833Z,8.79
2023-01-15T11:09:59.664Z,8.71
2023-01-15T11:10:59.657Z,8.71
2023-01-15T11:11:59.671Z,8.67
2023-01-15T11:12:59.674Z,8.64
2023-01-15T11:13:59.676Z,8.67
2023-01-15T11:14:59.705Z,8.58
2023-01-15T11:15:59.803Z,8.63
2023-01-15T11:16:59.676Z,8.63
2023-01-15T11:17:59.703Z,8.63
2023-01-15T11:18:59.681Z,8.67
2023-01-15T11:19:59.699Z,8.60
2023-01-15T11:20:59.688Z,8.60
2023-01-15T11:21:59.692Z,8.58
2023-01-15T11:22:59.694Z,8.61
2023-01-15T11:23:59.702Z,8.63
2023-01-15T11:24:59.701Z,8.66
2023-01-15T11:25:59.714Z,8.67
2023-01-15T11:26:59.722Z,8.64
2023-01-15T11:27:59.714Z,8.71
2023-01-15T11:28:59.722Z,8.81
2023-01-15T11:29:59.725Z,8.79
2023-01-15T11:30:59.779Z,8.88
2023-01-15T11:31:59.725Z,8.87
2023-01-15T11:32:59.727Z,8.89
2023-01-15T11:33:59.738Z,8.95
2023-01-15T11:34:59.731Z,8.91
2023-01-15T11:35:59.741Z,8.88
2023-01-15T11:36:59.740Z,8.95
2023-01-15T11:37:59.742Z,9.03
2023-01-15T11:38:59.756Z,9.08
2023-01-15T11:39:59.749Z,8.99
2023-01-15T11:40:59.898Z,9.13
2023-01-15T11:41:59.767Z,9.10
2023-01-15T11:42:59.759Z,9.02
2023-01-15T11:43:59.771Z,9.06
2023-01-15T11:44:59.772Z,9.08
2023-01-15T11:45:59.828Z,9.13
2023-01-15T11:46:59.772Z,9.02
2023-01-15T11:47:59.783Z,9.04
2023-01-15T11:48:59.788Z,8.97
2023-01-15T11:49:59.785Z,9.10
2023-01-15T11:50:59.794Z,8.91
2023-01-15T11:51:59.800Z,9.06
2023-01-15T11:52:59.796Z,8.92
2023-01-15T11:53:59.811Z,9.04
2023-01-15T11:54:59.809Z,8.99
2023-01-15T11:55:59.829Z,9.00
2023-01-15T11:56:59.811Z,9.11
2023-01-15T11:57:59.822Z,9.10
2023-01-15T11:58:59.818Z,9.11
2023-01-15T11:59:59.826Z,9.13
2023-01-15T12:00:59.913Z,9.08
2023-01-15T12:01:59.843Z,9.21
2023-01-15T12:02:59.831Z,9.25
2023-01-15T12:03:59.931Z,9.26
2023-01-15T12:04:59.842Z,9.22
2023-01-15T12:05:59.851Z,9.21
2023-01-15T12:06:59.844Z,9.23
2023-01-15T12:07:59.848Z,9.22
2023-01-15T12:08:59.856Z,9.13
2023-01-15T12:09:59.863Z,9.16
2023-01-15T12:10:59.858Z,9.14
2023-01-15T12:11:59.870Z,9.28
2023-01-15T12:12:59.870Z,9.31
2023-01-15T12:13:59.868Z,9.22
2023-01-15T12:14:59.874Z,9.28
2023-01-15T12:15:59.932Z,9.37
2023-01-15T12:16:59.891Z,9.41
2023-01-15T12:17:59.886Z,9.48
2023-01-15T12:18:59.895Z,9.58
2023-01-15T12:19:59.906Z,9.65
2023-01-15T12:20:59.898Z,9.73
2023-01-15T12:21:59.909Z,9.80
2023-01-15T12:22:59.912Z,9.77
2023-01-15T12:23:59.916Z,9.86
2023-01-15T12:24:59.920Z,9.97
2023-01-15T12:25:59.933Z,9.94
2023-01-15T12:26:59.928Z,10.05
2023-01-15T12:27:59.926Z,9.98
2023-01-15T12:28:59.933Z,10.05
2023-01-15T12:29:59.940Z,10.12
2023-01-15T12:30:59.990Z,10.12
2023-01-15T12:31:59.943Z,10.13
2023-01-15T12:32:59.953Z,10.13
2023-01-15T12:33:59.950Z,10.19
2023-01-15T12:34:59.959Z,10.17
2023-01-15T12:35:59.966Z,10.26
2023-01-15T12:36:59.965Z,10.22
2023-01-15T12:37:59.975Z,10.23
2023-01-15T12:38:59.980Z,10.20
2023-01-15T12:39:59.975Z,10.23
2023-01-15T12:40:59.988Z,10.13
2023-01-15T12:41:59.985Z,10.15
2023-01-15T12:42:59.989Z,10.09
2023-01-15T12:44:00.000Z,10.15
2023-01-15T12:45:00.004Z,10.10
2023-01-15T12:46:00.003Z,10.07
2023-01-15T12:47:00.011Z,10.09
2023-01-15T12:48:00.020Z,10.07
2023-01-15T12:49:00.012Z,10.12
2023-01-15T12:50:00.040Z,10.09
2023-01-15T12:51:00.030Z,10.13
2023-01-15T12:52:00.026Z,10.09
2023-01-15T12:53:00.047Z,10.07
2023-01-15T12:54:00.053Z,10.05
2023-01-15T12:55:00.072Z,10.07
2023-01-15T12:56:00.044Z,10.10
2023-01-15T12:57:01.802Z,10.10
2023-01-15T12:58:00.079Z,10.13
2023-01-15T12:59:00.096Z,10.15
2023-01-15T13:00:00.055Z,10.13
2023-01-15T13:01:00.197Z,10.09
2023-01-15T13:02:00.306Z,10.13
2023-01-15T13:03:00.088Z,10.15
2023-01-15T13:04:00.104Z,10.12
2023-01-15T13:05:00.113Z,10.12
2023-01-15T13:06:00.118Z,10.10
2023-01-15T13:07:00.113Z,10.12
2023-01-15T13:08:00.108Z,10.02
2023-01-15T13:09:00.130Z,10.07
2023-01-15T13:10:00.109Z,9.94
2023-01-15T13:11:00.129Z,10.04
2023-01-15T13:12:00.119Z,9.95
2023-01-15T13:13:00.114Z,9.94